createdAt,value
2018-08-11T00:01:10.634Z,16.30
2018-08-11T00:03:39.190Z,16.30
2018-08-11T00:06:07.806Z,16.20
2018-08-11T00:08:36.365Z,16.10
2018-08-11T00:11:05.015Z,16.10
2018-08-11T00:13:33.647Z,16.10
2018-08-11T00:16:02.202Z,16.10
2018-08-11T00:18:30.767Z,16.00
2018-08-11T00:20:59.326Z,16.00
2018-08-11T00:23:27.893Z,16.00
2018-08-11T00:25:56.503Z,15.90
2018-08-11T00:28:25.113Z,15.90
2018-08-11T00:30:53.785Z,16.00
2018-08-11T00:33:22.355Z,16.00
2018-08-11T00:35:50.899Z,16.00
2018-08-11T00:38:19.485Z,16.10
2018-08-11T00:40:48.095Z,16.10
2018-08-11T00:43:16.676Z,16.10
2018-08-11T00:45:46.070Z,16.10
2018-08-11T00:48:14.988Z,16.10
2018-08-11T00:50:43.611Z,16.00
2018-08-11T00:53:12.206Z,16.00
2018-08-11T00:55:40.790Z,15.90
2018-08-11T00:58:09.411Z,15.90
2018-08-11T01:00:38.010Z,15.90
2018-08-11T01:03:06.714Z,15.90
2018-08-11T01:05:35.379Z,15.90
2018-08-11T01:08:03.994Z,15.90
2018-08-11T01:10:32.554Z,15.80
2018-08-11T01:13:01.189Z,15.80
2018-08-11T01:15:29.771Z,15.90
2018-08-11T01:17:58.293Z,15.90
2018-08-11T01:20:26.893Z,16.00
2018-08-11T01:22:55.439Z,16.00
2018-08-11T01:25:23.993Z,16.00
2018-08-11T01:27:52.594Z,16.00
2018-08-11T01:30:22.062Z,15.90
2018-08-11T01:32:50.621Z,15.90
2018-08-11T01:35:19.327Z,15.90
2018-08-11T01:37:48.194Z,15.90
2018-08-11T01:40:17.318Z,15.90
2018-08-11T01:43:00.443Z,15.80
2018-08-11T01:45:29.012Z,15.80
2018-08-11T01:47:57.591Z,15.80
2018-08-11T01:50:26.175Z,15.70
2018-08-11T01:52:54.791Z,15.60
2018-08-11T01:55:23.350Z,15.60
2018-08-11T01:57:51.919Z,15.50
2018-08-11T02:00:21.570Z,15.50
2018-08-11T02:02:50.790Z,15.30
2018-08-11T02:05:19.434Z,15.20
2018-08-11T02:07:48.063Z,15.10
2018-08-11T02:10:19.589Z,15.10
2018-08-11T02:12:48.570Z,15.10
2018-08-11T02:15:17.465Z,15.10
2018-08-11T02:17:46.051Z,15.20
2018-08-11T02:20:17.104Z,15.20
2018-08-11T02:22:46.562Z,15.10
2018-08-11T02:25:15.218Z,15.10
2018-08-11T02:27:43.838Z,15.10
2018-08-11T02:30:17.423Z,15.10
2018-08-11T02:32:46.066Z,15.10
2018-08-11T02:35:14.949Z,15.20
2018-08-11T02:37:43.769Z,15.20
2018-08-11T02:40:14.892Z,15.20
2018-08-11T02:42:43.521Z,15.30
2018-08-11T02:45:14.206Z,15.30
2018-08-11T02:47:42.869Z,15.30
2018-08-11T02:50:12.385Z,15.20
2018-08-11T02:52:44.454Z,15.30
2018-08-11T02:55:13.043Z,15.30
2018-08-11T02:57:41.580Z,15.30
2018-08-11T03:00:11.634Z,15.30
2018-08-11T03:02:40.183Z,15.20
2018-08-11T03:05:08.759Z,15.20
2018-08-11T03:07:37.987Z,15.10
2018-08-11T03:10:08.315Z,15.00
2018-08-11T03:12:36.946Z,15.00
2018-08-11T03:15:06.631Z,14.90
2018-08-11T03:17:35.166Z,14.90
2018-08-11T03:20:04.631Z,14.90
2018-08-11T03:22:33.182Z,14.90
2018-08-11T03:25:01.736Z,14.80
2018-08-11T03:27:30.342Z,14.80
2018-08-11T03:29:58.879Z,14.70
2018-08-11T03:32:27.430Z,14.50
2018-08-11T03:34:55.983Z,14.40
2018-08-11T03:37:24.537Z,14.30
2018-08-11T03:39:53.288Z,14.30
2018-08-11T03:42:21.821Z,14.20
2018-08-11T03:44:50.406Z,14.20
2018-08-11T03:47:18.945Z,14.20
2018-08-11T03:49:47.508Z,14.20
2018-08-11T03:52:16.068Z,14.30
2018-08-11T03:54:44.599Z,14.30
2018-08-11T03:57:13.278Z,14.30
2018-08-11T03:59:41.859Z,14.30
2018-08-11T04:02:10.484Z,14.30
2018-08-11T04:04:39.038Z,14.30
2018-08-11T04:07:08.356Z,14.20
2018-08-11T04:09:36.986Z,14.20
2018-08-11T04:12:05.555Z,14.20
2018-08-11T04:14:34.114Z,14.10
2018-08-11T04:17:02.682Z,14.10
2018-08-11T04:19:31.270Z,13.90
2018-08-11T04:21:59.818Z,13.90
2018-08-11T04:24:28.386Z,13.90
2018-08-11T04:26:56.954Z,13.90
2018-08-11T04:29:25.528Z,14.00
2018-08-11T04:31:54.110Z,14.00
2018-08-11T04:34:22.666Z,14.20
2018-08-11T04:36:51.256Z,14.30
2018-08-11T04:39:19.862Z,14.30
2018-08-11T04:41:48.453Z,14.30
2018-08-11T04:44:17.002Z,14.30
2018-08-11T04:46:45.590Z,14.30
2018-08-11T04:49:14.112Z,14.40
2018-08-11T04:51:42.729Z,14.50
2018-08-11T04:54:11.339Z,14.70
2018-08-11T04:56:39.870Z,14.80
2018-08-11T04:59:08.457Z,14.90
2018-08-11T05:01:37.027Z,15.20
2018-08-11T05:04:05.619Z,15.50
2018-08-11T05:06:34.170Z,15.60
2018-08-11T05:09:02.738Z,15.90
2018-08-11T05:11:31.333Z,16.30
2018-08-11T05:13:59.866Z,16.70
2018-08-11T05:16:28.444Z,17.00
2018-08-11T05:18:57.007Z,17.30
2018-08-11T05:21:25.586Z,17.50
2018-08-11T05:23:54.146Z,17.60
2018-08-11T05:26:22.719Z,17.60
2018-08-11T05:28:51.317Z,17.60
2018-08-11T05:31:19.866Z,17.50
2018-08-11T05:33:48.443Z,17.60
2018-08-11T05:36:17.032Z,17.60
2018-08-11T05:38:45.579Z,17.80
2018-08-11T05:41:14.135Z,18.00
2018-08-11T05:43:42.698Z,18.10
2018-08-11T05:46:11.278Z,18.20
2018-08-11T05:48:39.852Z,18.20
2018-08-11T05:51:08.429Z,18.30
2018-08-11T05:53:36.976Z,18.10
2018-08-11T05:56:05.706Z,18.10
2018-08-11T05:58:34.251Z,18.00
2018-08-11T06:01:02.938Z,17.80
2018-08-11T06:03:31.566Z,18.10
2018-08-11T06:06:00.134Z,19.50
2018-08-11T06:08:28.739Z,21.10
2018-08-11T06:10:57.310Z,22.40
2018-08-11T06:13:25.860Z,23.10
2018-08-11T06:15:54.398Z,23.00
2018-08-11T06:18:23.047Z,22.90
2018-08-11T06:20:51.623Z,22.80
2018-08-11T06:23:20.162Z,22.90
2018-08-11T06:25:48.701Z,23.50
2018-08-11T06:28:17.253Z,24.10
2018-08-11T06:30:45.844Z,23.90
2018-08-11T06:33:14.394Z,23.70
2018-08-11T06:35:42.985Z,23.90
2018-08-11T06:38:11.543Z,24.00
2018-08-11T06:40:40.155Z,23.80
2018-08-11T06:43:08.722Z,23.40
2018-08-11T06:45:37.290Z,24.50
2018-08-11T06:48:06.340Z,26.00
2018-08-11T06:50:34.983Z,26.90
2018-08-11T06:53:03.574Z,27.60
2018-08-11T06:55:32.128Z,28.10
2018-08-11T06:58:00.692Z,29.40
2018-08-11T07:00:29.294Z,30.20
2018-08-11T07:02:57.799Z,31.10
2018-08-11T07:05:26.362Z,31.80
2018-08-11T07:07:54.922Z,32.30
2018-08-11T07:10:23.526Z,32.60
2018-08-11T07:12:52.073Z,32.10
2018-08-11T07:15:20.737Z,31.20
2018-08-11T07:17:49.277Z,32.10
2018-08-11T07:20:17.889Z,33.30
2018-08-11T07:22:46.533Z,34.20
2018-08-11T07:25:15.113Z,34.30
2018-08-11T07:27:43.766Z,33.80
2018-08-11T07:30:12.324Z,33.50
2018-08-11T07:32:40.973Z,33.80
2018-08-11T07:35:09.537Z,34.30
2018-08-11T07:37:38.128Z,34.90
2018-08-11T07:40:06.838Z,36.30
2018-08-11T07:42:35.409Z,37.50
2018-08-11T07:45:04.043Z,38.30
2018-08-11T07:47:32.693Z,37.90
2018-08-11T07:50:01.231Z,37.30
2018-08-11T07:52:29.791Z,36.70
2018-08-11T07:54:58.382Z,34.00
2018-08-11T07:57:26.966Z,32.60
2018-08-11T07:59:55.556Z,34.40
2018-08-11T08:02:24.086Z,36.80
2018-08-11T08:04:53.058Z,38.20
2018-08-11T08:07:21.621Z,37.40
2018-08-11T08:09:50.200Z,36.80
2018-08-11T08:12:18.758Z,37.40
2018-08-11T08:14:47.301Z,38.60
2018-08-11T08:17:15.904Z,39.80
2018-08-11T08:19:44.474Z,40.50
2018-08-11T08:22:13.104Z,39.20
2018-08-11T08:24:41.692Z,38.90
2018-08-11T08:27:10.342Z,40.10
2018-08-11T08:29:38.899Z,39.80
2018-08-11T08:32:07.563Z,38.90
2018-08-11T08:34:36.111Z,38.10
2018-08-11T08:37:04.734Z,38.80
2018-08-11T08:39:33.315Z,38.10
2018-08-11T08:42:01.848Z,39.20
2018-08-11T08:44:30.423Z,41.00
2018-08-11T08:46:59.102Z,42.90
2018-08-11T08:49:27.639Z,43.20
2018-08-11T08:51:56.220Z,41.10
2018-08-11T08:54:24.755Z,41.10
2018-08-11T08:56:53.321Z,40.30
2018-08-11T08:59:21.847Z,37.60
2018-08-11T09:01:50.476Z,34.60
2018-08-11T09:04:19.026Z,32.50
2018-08-11T09:06:47.642Z,30.90
2018-08-11T09:09:16.185Z,31.10
2018-08-11T09:11:45.262Z,30.20
2018-08-11T09:14:13.905Z,34.90
2018-08-11T09:16:42.515Z,38.60
2018-08-11T09:19:11.089Z,37.40
2018-08-11T09:21:39.654Z,34.50
2018-08-11T09:24:08.286Z,37.10
2018-08-11T09:26:36.875Z,36.90
2018-08-11T09:29:05.613Z,37.40
2018-08-11T09:31:34.159Z,39.60
2018-08-11T09:34:02.707Z,40.50
2018-08-11T09:36:31.278Z,41.30
2018-08-11T09:38:59.846Z,42.90
2018-08-11T09:41:28.470Z,41.80
2018-08-11T09:43:57.000Z,39.20
2018-08-11T09:46:25.643Z,36.60
2018-08-11T09:48:54.254Z,33.60
2018-08-11T09:51:22.785Z,32.20
2018-08-11T09:53:51.366Z,31.40
2018-08-11T09:56:20.007Z,31.50
2018-08-11T09:58:48.562Z,32.20
2018-08-11T10:01:22.479Z,32.60
2018-08-11T10:03:51.093Z,30.80
2018-08-11T10:06:19.678Z,29.40
2018-08-11T10:08:48.236Z,28.50
2018-08-11T10:11:16.818Z,28.00
2018-08-11T10:13:45.409Z,27.30
2018-08-11T10:16:13.991Z,27.30
2018-08-11T10:18:42.581Z,27.40
2018-08-11T10:21:11.164Z,27.20
2018-08-11T10:23:39.821Z,26.50
2018-08-11T10:26:20.856Z,28.90
2018-08-11T10:28:49.386Z,32.30
2018-08-11T10:31:17.956Z,31.00
2018-08-11T10:33:46.709Z,29.10
2018-08-11T10:36:15.276Z,27.80
2018-08-11T10:38:43.914Z,27.30
2018-08-11T10:41:12.515Z,28.10
2018-08-11T10:43:41.117Z,28.90
2018-08-11T10:46:09.691Z,29.00
2018-08-11T10:48:38.327Z,29.70
2018-08-11T10:51:06.611Z,29.80
2018-08-11T10:53:35.214Z,29.60
2018-08-11T10:56:03.927Z,28.80
2018-08-11T10:58:32.440Z,28.20
2018-08-11T11:01:01.094Z,28.10
2018-08-11T11:03:29.650Z,27.90
2018-08-11T11:05:58.262Z,27.40
2018-08-11T11:08:26.868Z,27.10
2018-08-11T11:10:55.413Z,26.70
2018-08-11T11:13:24.022Z,26.30
2018-08-11T11:15:52.588Z,26.60
2018-08-11T11:18:21.159Z,27.40
2018-08-11T11:20:49.741Z,27.80
2018-08-11T11:23:18.313Z,28.30
2018-08-11T11:25:46.894Z,29.00
2018-08-11T11:28:15.475Z,29.10
2018-08-11T11:30:44.055Z,28.90
2018-08-11T11:33:14.011Z,28.90
2018-08-11T11:35:42.578Z,28.50
2018-08-11T11:38:11.148Z,28.40
2018-08-11T11:40:39.728Z,28.00
2018-08-11T11:43:08.314Z,27.70
2018-08-11T11:45:36.891Z,27.20
2018-08-11T11:48:05.767Z,26.60
2018-08-11T11:50:34.429Z,26.60
2018-08-11T11:53:03.034Z,26.50
2018-08-11T11:55:31.591Z,26.80
2018-08-11T11:58:00.182Z,27.30
2018-08-11T12:00:28.746Z,27.70
2018-08-11T12:02:57.339Z,27.70
2018-08-11T12:05:25.956Z,27.70
2018-08-11T12:07:54.481Z,28.00
2018-08-11T12:10:23.075Z,27.50
2018-08-11T12:12:51.657Z,27.20
2018-08-11T12:15:20.266Z,27.30
2018-08-11T12:17:48.814Z,27.10
2018-08-11T12:20:17.352Z,26.70
2018-08-11T12:22:45.917Z,26.50
2018-08-11T12:25:14.486Z,26.60
2018-08-11T12:27:43.069Z,26.60
2018-08-11T12:30:11.998Z,26.60
2018-08-11T12:32:40.901Z,27.00
2018-08-11T12:35:09.557Z,27.20
2018-08-11T12:37:38.127Z,27.20
2018-08-11T12:40:06.694Z,27.20
2018-08-11T12:42:35.275Z,27.10
2018-08-11T12:45:03.893Z,27.40
2018-08-11T12:47:32.462Z,28.20
2018-08-11T12:50:01.039Z,28.60
2018-08-11T12:52:29.584Z,28.40
2018-08-11T12:54:58.146Z,27.90
2018-08-11T12:57:26.743Z,28.00
2018-08-11T12:59:55.298Z,28.20
2018-08-11T13:02:23.876Z,28.50
2018-08-11T13:04:52.431Z,28.70
2018-08-11T13:07:21.003Z,29.00
2018-08-11T13:09:49.568Z,28.30
2018-08-11T13:12:18.155Z,27.70
2018-08-11T13:14:46.743Z,28.00
2018-08-11T13:17:15.298Z,28.30
2018-08-11T13:19:43.830Z,28.40
2018-08-11T13:22:12.429Z,28.50
2018-08-11T13:24:41.026Z,28.90
2018-08-11T13:27:09.585Z,28.90
2018-08-11T13:29:38.200Z,28.40
2018-08-11T13:32:06.850Z,28.00
2018-08-11T13:34:35.456Z,27.90
2018-08-11T13:37:04.232Z,28.60
2018-08-11T13:39:32.779Z,29.30
2018-08-11T13:42:01.381Z,29.80
2018-08-11T13:44:29.894Z,29.90
2018-08-11T13:46:58.464Z,30.10
2018-08-11T13:49:27.096Z,30.30
2018-08-11T13:51:55.642Z,30.60
2018-08-11T13:54:24.281Z,30.30
2018-08-11T13:56:52.742Z,30.30
2018-08-11T13:59:21.343Z,30.40
2018-08-11T14:01:49.930Z,30.60
2018-08-11T14:04:18.550Z,30.70
2018-08-11T14:06:47.139Z,30.20
2018-08-11T14:09:15.719Z,30.30
2018-08-11T14:11:44.366Z,30.20
2018-08-11T14:14:12.929Z,30.10
2018-08-11T14:16:41.568Z,29.90
2018-08-11T14:19:10.128Z,29.90
2018-08-11T14:21:38.766Z,30.00
2018-08-11T14:24:07.332Z,29.70
2018-08-11T14:26:35.895Z,29.50
2018-08-11T14:29:04.551Z,29.30
2018-08-11T14:31:33.183Z,28.90
2018-08-11T14:34:01.730Z,28.30
2018-08-11T14:36:30.475Z,28.20
2018-08-11T14:38:59.097Z,28.00
2018-08-11T14:41:27.617Z,27.70
2018-08-11T14:43:56.213Z,27.80
2018-08-11T14:46:24.810Z,28.00
2018-08-11T14:48:53.454Z,28.10
2018-08-11T14:51:22.073Z,27.90
2018-08-11T14:53:50.660Z,27.90
2018-08-11T14:56:19.352Z,27.70
2018-08-11T14:58:47.906Z,27.60
2018-08-11T15:01:16.510Z,27.40
2018-08-11T15:03:45.142Z,27.50
2018-08-11T15:06:13.695Z,27.40
2018-08-11T15:08:42.754Z,27.50
2018-08-11T15:11:11.336Z,27.50
2018-08-11T15:13:39.937Z,27.60
2018-08-11T15:16:08.548Z,27.60
2018-08-11T15:18:37.195Z,27.70
2018-08-11T15:21:05.873Z,27.70
2018-08-11T15:23:35.348Z,27.60
2018-08-11T15:26:03.961Z,27.50
2018-08-11T15:28:32.538Z,27.50
2018-08-11T15:31:01.134Z,27.40
2018-08-11T15:33:29.897Z,27.40
2018-08-11T15:35:58.387Z,27.40
2018-08-11T15:38:27.019Z,27.40
2018-08-11T15:40:55.596Z,27.20
2018-08-11T15:43:24.207Z,26.90
2018-08-11T15:45:52.823Z,26.60
2018-08-11T15:48:21.482Z,26.60
2018-08-11T15:50:50.049Z,26.50
2018-08-11T15:53:18.605Z,26.40
2018-08-11T15:55:47.206Z,26.40
2018-08-11T15:58:15.776Z,26.20
2018-08-11T16:00:44.439Z,26.10
2018-08-11T16:03:13.073Z,26.10
2018-08-11T16:05:41.793Z,26.10
2018-08-11T16:08:10.339Z,26.20
2018-08-11T16:10:38.910Z,26.30
2018-08-11T16:13:07.518Z,26.30
2018-08-11T16:15:36.145Z,26.30
2018-08-11T16:18:04.821Z,26.20
2018-08-11T16:20:33.427Z,26.30
2018-08-11T16:23:02.055Z,26.30
2018-08-11T16:25:30.941Z,26.30
2018-08-11T16:27:59.515Z,26.40
2018-08-11T16:30:28.147Z,26.30
2018-08-11T16:32:56.711Z,26.20
2018-08-11T16:35:25.323Z,26.20
2018-08-11T16:37:53.902Z,26.10
2018-08-11T16:40:22.553Z,26.00
2018-08-11T16:42:51.138Z,26.00
2018-08-11T16:45:19.727Z,25.90
2018-08-11T16:47:48.371Z,25.80
2018-08-11T16:50:16.962Z,25.70
2018-08-11T16:52:45.507Z,25.70
2018-08-11T16:55:14.098Z,25.60
2018-08-11T16:57:42.744Z,25.50
2018-08-11T17:00:12.885Z,25.40
2018-08-11T17:02:41.948Z,25.30
2018-08-11T17:05:10.513Z,25.20
2018-08-11T17:07:39.071Z,25.20
2018-08-11T17:10:08.914Z,25.10
2018-08-11T17:12:37.915Z,25.10
2018-08-11T17:15:07.143Z,25.00
2018-08-11T17:17:35.788Z,24.90
2018-08-11T17:20:04.494Z,24.90
2018-08-11T17:22:33.097Z,24.80
2018-08-11T17:25:01.712Z,24.70
2018-08-11T17:27:30.315Z,24.70
2018-08-11T17:29:58.887Z,24.70
2018-08-11T17:32:27.463Z,24.60
2018-08-11T17:34:56.028Z,24.50
2018-08-11T17:37:24.617Z,24.50
2018-08-11T17:39:53.195Z,24.40
2018-08-11T17:42:21.739Z,24.30
2018-08-11T17:44:50.313Z,24.30
2018-08-11T17:47:18.898Z,24.20
2018-08-11T17:49:47.500Z,24.10
2018-08-11T17:52:16.132Z,24.10
2018-08-11T17:54:44.768Z,24.00
2018-08-11T17:57:13.331Z,23.90
2018-08-11T17:59:41.884Z,23.80
2018-08-11T18:02:10.494Z,23.80
2018-08-11T18:04:39.053Z,23.70
2018-08-11T18:07:07.777Z,23.60
2018-08-11T18:09:36.342Z,23.50
2018-08-11T18:12:04.974Z,23.40
2018-08-11T18:14:33.543Z,23.20
2018-08-11T18:17:02.113Z,23.10
2018-08-11T18:19:30.674Z,23.10
2018-08-11T18:21:59.234Z,22.90
2018-08-11T18:24:27.843Z,22.80
2018-08-11T18:26:56.376Z,22.80
2018-08-11T18:29:25.029Z,22.70
2018-08-11T18:31:53.592Z,22.60
2018-08-11T18:34:22.132Z,22.50
2018-08-11T18:36:50.794Z,22.40
2018-08-11T18:39:19.336Z,22.40
2018-08-11T18:41:47.901Z,22.20
2018-08-11T18:44:16.443Z,22.10
2018-08-11T18:46:44.993Z,22.10
2018-08-11T18:49:13.554Z,22.00
2018-08-11T18:51:42.084Z,21.80
2018-08-11T18:54:10.682Z,21.80
2018-08-11T18:56:39.303Z,21.60
2018-08-11T18:59:07.894Z,21.50
2018-08-11T19:01:36.500Z,21.40
2018-08-11T19:04:05.195Z,21.30
2018-08-11T19:06:33.802Z,21.20
2018-08-11T19:09:02.390Z,21.10
2018-08-11T19:11:30.978Z,20.90
2018-08-11T19:14:02.367Z,20.80
2018-08-11T19:16:30.973Z,20.70
2018-08-11T19:18:59.572Z,20.50
2018-08-11T19:21:28.170Z,20.40
2018-08-11T19:23:56.783Z,20.30
2018-08-11T19:26:25.411Z,20.20
2018-08-11T19:28:54.054Z,20.20
2018-08-11T19:31:22.640Z,20.00
2018-08-11T19:33:51.297Z,20.00
2018-08-11T19:36:20.057Z,19.90
2018-08-11T19:38:48.640Z,19.90
2018-08-11T19:41:17.195Z,19.80
2018-08-11T19:43:45.746Z,19.80
2018-08-11T19:46:14.450Z,19.60
2018-08-11T19:48:42.974Z,19.50
2018-08-11T19:51:11.604Z,19.40
2018-08-11T19:53:41.027Z,19.30
2018-08-11T19:56:09.611Z,19.20
2018-08-11T19:58:42.013Z,19.10
2018-08-11T20:01:10.707Z,19.10
2018-08-11T20:03:39.268Z,19.00
2018-08-11T20:06:07.832Z,19.00
2018-08-11T20:08:42.759Z,18.90
2018-08-11T20:11:11.297Z,18.90
2018-08-11T20:13:39.867Z,18.90
2018-08-11T20:16:08.482Z,18.80
2018-08-11T20:18:37.098Z,18.80
2018-08-11T20:21:05.744Z,18.70
2018-08-11T20:23:34.376Z,18.60
2018-08-11T20:26:02.963Z,18.50
2018-08-11T20:28:31.551Z,18.50
2018-08-11T20:31:00.208Z,18.40
2018-08-11T20:33:28.797Z,18.30
2018-08-11T20:35:57.427Z,18.30
2018-08-11T20:38:26.025Z,18.20
2018-08-11T20:40:54.670Z,18.10
2018-08-11T20:43:23.307Z,18.00
2018-08-11T20:45:51.934Z,18.00
2018-08-11T20:48:20.498Z,17.90
2018-08-11T20:50:49.076Z,17.80
2018-08-11T20:53:17.737Z,17.80
2018-08-11T20:55:46.297Z,17.80
2018-08-11T20:58:14.889Z,17.70
2018-08-11T21:00:43.535Z,17.60
2018-08-11T21:03:12.783Z,17.60
2018-08-11T21:05:41.409Z,17.50
2018-08-11T21:08:10.011Z,17.30
2018-08-11T21:10:38.627Z,17.30
2018-08-11T21:13:07.462Z,17.20
2018-08-11T21:15:36.135Z,17.10
2018-08-11T21:18:04.750Z,16.90
2018-08-11T21:20:33.362Z,16.80
2018-08-11T21:23:01.938Z,16.70
2018-08-11T21:25:30.605Z,16.60
2018-08-11T21:27:59.212Z,16.60
2018-08-11T21:30:27.841Z,16.50
2018-08-11T21:32:56.416Z,16.30
2018-08-11T21:35:25.040Z,16.30
2018-08-11T21:37:53.610Z,16.30
2018-08-11T21:40:22.198Z,16.20
2018-08-11T21:42:50.794Z,16.10
2018-08-11T21:45:19.391Z,16.10
2018-08-11T21:47:48.008Z,16.10
2018-08-11T21:50:16.652Z,16.00
2018-08-11T21:52:45.181Z,16.00
2018-08-11T21:55:13.759Z,16.00
2018-08-11T21:57:42.327Z,16.00
2018-08-11T22:00:21.925Z,15.90
2018-08-11T22:02:50.622Z,16.00
2018-08-11T22:05:19.183Z,15.90
2018-08-11T22:07:47.745Z,15.90
2018-08-11T22:10:16.351Z,15.90
2018-08-11T22:12:44.915Z,15.90
2018-08-11T22:15:16.440Z,15.80
2018-08-11T22:17:45.013Z,15.70
2018-08-11T22:20:13.897Z,15.70
2018-08-11T22:22:42.712Z,15.50
2018-08-11T22:25:11.892Z,15.40
2018-08-11T22:27:40.632Z,15.40
2018-08-11T22:30:09.907Z,15.20
2018-08-11T22:32:38.529Z,15.10
2018-08-11T22:35:08.985Z,15.00
2018-08-11T22:37:37.638Z,15.00
2018-08-11T22:40:06.887Z,15.00
2018-08-11T22:42:36.374Z,15.00
2018-08-11T22:45:07.967Z,15.00
2018-08-11T22:47:36.690Z,14.90
2018-08-11T22:50:07.215Z,14.90
2018-08-11T22:52:35.963Z,14.90
2018-08-11T22:55:04.939Z,15.00
2018-08-11T22:57:33.595Z,14.90
2018-08-11T23:00:02.186Z,14.90
2018-08-11T23:02:30.837Z,14.90
2018-08-11T23:04:59.426Z,14.90
2018-08-11T23:07:28.039Z,14.80
2018-08-11T23:09:56.636Z,14.80
2018-08-11T23:12:25.232Z,14.70
2018-08-11T23:14:53.793Z,14.60
2018-08-11T23:17:22.403Z,14.50
2018-08-11T23:19:51.032Z,14.50
2018-08-11T23:22:19.594Z,14.50
2018-08-11T23:24:48.205Z,14.50
2018-08-11T23:27:16.806Z,14.50
2018-08-11T23:29:45.386Z,14.50
2018-08-11T23:32:13.942Z,14.40
2018-08-11T23:34:42.488Z,14.30
2018-08-11T23:37:11.047Z,14.30
2018-08-11T23:39:39.630Z,14.30
2018-08-11T23:42:08.291Z,14.30
2018-08-11T23:44:36.849Z,14.40
2018-08-11T23:47:05.469Z,14.40
2018-08-11T23:49:34.044Z,14.30
2018-08-11T23:52:02.608Z,14.30
2018-08-11T23:54:31.209Z,14.40
2018-08-11T23:56:59.746Z,14.30
2018-08-11T23:59:28.355Z,14.30
